CST,Max TemperatureF,Mean TemperatureF,Min TemperatureF,Max Dew PointF,MeanDew PointF,Min DewpointF,Max Humidity, Mean Humidity, Min Humidity, Max Sea Level PressureIn, Mean Sea Level PressureIn, Min Sea Level PressureIn, Max VisibilityMiles, Mean VisibilityMiles, Min VisibilityMiles, Max Wind SpeedMPH, Mean Wind SpeedMPH, Max Gust SpeedMPH,PrecipitationIn, CloudCover, Events, WindDirDegrees
2013-11-1,71,60,50,49,44,38,89,62,32,29.89,29.79,29.73,10,10,10,13,5,21,0.00,0,,264
2013-11-2,60,52,42,42,40,37,85,67,44,30.22,30.06,29.90,10,10,10,20,7,30,0.00,2,,303
2013-11-3,59,48,37,42,38,33,89,70,44,30.33,30.24,30.19,10,9,2,9,2,,0.01,0,,130
2013-11-4,60,53,46,50,44,38,93,72,53,30.27,30.22,30.19,10,9,5,13,5,18,0.06,3,Rain,167
2013-11-5,64,58,52,52,49,47,89,72,54,30.30,30.19,30.09,10,9,6,12,4,,0.00,7,Rain,148
2013-11-6,62,53,42,56,45,33,88,76,66,30.29,30.10,30.00,10,9,2,18,10,26,0.55,7,Rain,263
2013-11-7,60,48,37,37,33,29,82,63,32,30.43,30.35,30.31,10,10,10,8,4,,0.00,0,,306
2013-11-8,60,48,35,36,32,29,82,62,32,30.40,30.30,30.19,10,10,9,9,2,,0.01,0,,155
2013-11-9,64,50,37,45,40,33,83,70,45,30.24,30.20,30.14,10,10,8,14,4,21,0.00,1,,204
2013-11-10,64,52,39,41,36,30,87,66,29,30.41,30.32,30.24,10,8,0,8,1,,0.00,0,Fog,44
2013-11-11,64,50,36,46,37,30,83,61,37,30.34,30.25,30.16,10,10,7,23,4,33,0.00,6,Rain,241
2013-11-12,46,37,27,36,20,11,67,51,28,30.74,30.63,30.35,10,10,9,23,14,29,0.01,3,Snow,11
2013-11-13,45,33,21,22,18,14,75,56,29,30.74,30.61,30.43,10,10,8,7,2,,0.02,0,,227
2013-11-14,55,40,26,31,24,19,78,57,28,30.41,30.26,30.13,10,10,9,15,3,,0.02,0,Rain,189
2013-11-15,48,44,39,37,33,29,73,66,53,30.13,30.12,30.11,10,10,8,7,1,,0.01,6,Rain,166
2013-11-16,72,64,57,61,55,48,84,71,43,29.98,29.85,29.72,10,7,1,20,11,30,0.12,7,Rain-Thunderstorm,176
2013-11-17,82,70,57,66,55,23,84,66,18,29.99,29.70,29.52,10,8,1,32,18,45,0.91,6,Rain-Thunderstorm,213
2013-11-18,64,52,39,36,28,21,73,45,19,30.30,30.18,30.01,10,10,10,16,6,23,0.00,0,,322
2013-11-19,51,44,36,31,28,25,79,59,36,30.36,30.28,30.21,10,10,10,10,4,,0.00,0,,36
2013-11-20,55,44,34,37,32,27,79,64,40,30.22,30.15,30.07,10,10,9,10,5,,0.00,0,,110
2013-11-21,55,49,43,52,48,37,88,82,66,30.19,30.14,30.11,10,4,1,9,3,,0.49,7,Rain,113
2013-11-22,55,48,39,52,43,30,87,77,67,30.48,30.31,30.17,10,8,2,16,8,26,0.05,8,Rain,350
2013-11-23,46,36,26,31,21,10,70,52,30,30.71,30.56,30.46,10,10,10,16,11,25,0.00,2,,5
2013-11-24,32,26,21,14,11,9,60,50,40,30.75,30.65,30.49,10,10,10,14,10,,0.00,1,,35
2013-11-25,35,34,32,26,22,15,75,63,50,30.46,30.31,30.20,10,10,8,6,3,,0.03,8,Rain,147
2013-11-26,46,40,30,27,24,12,75,59,42,30.22,30.12,30.01,10,10,8,17,8,26,0.00,5,Rain,348
2013-11-27,37,30,23,17,10,6,74,48,28,30.39,30.33,30.23,10,10,9,16,10,23,0.00,0,,330
2013-11-28,45,33,21,26,21,15,78,64,45,30.48,30.40,30.34,10,10,9,16,5,,0.00,0,,203
2013-11-29,50,38,27,31,26,21,79,67,46,30.59,30.51,30.42,10,9,6,9,2,,0.00,0,,77
2013-11-30,55,41,27,34,28,21,81,67,39,30.41,30.30,30.19,10,9,1,20,4,25,0.00,0,,204